sensor_id;sensor_type;location;lat;lon;timestamp;P1;durP1;ratioP1;P2;durP2;ratioP2
815;SDS011;25928;51.062;13.752;2022-08-11T00:04:28;5.20;;;4.80;;
815;SDS011;25928;51.062;13.752;2022-08-11T00:10:35;5.87;;;5.13;;
815;SDS011;25928;51.062;13.752;2022-08-11T00:13:03;5.33;;;4.83;;
815;SDS011;25928;51.062;13.752;2022-08-11T00:15:39;5.00;;;4.60;;
815;SDS011;25928;51.062;13.752;2022-08-11T00:21:28;4.63;;;4.23;;
815;SDS011;25928;51.062;13.752;2022-08-11T00:23:55;5.20;;;4.70;;
815;SDS011;25928;51.062;13.752;2022-08-11T00:26:24;5.63;;;4.60;;
815;SDS011;25928;51.062;13.752;2022-08-11T00:28:51;8.50;;;5.60;;
815;SDS011;25928;51.062;13.752;2022-08-11T00:34:51;5.00;;;4.60;;
815;SDS011;25928;51.062;13.752;2022-08-11T00:40:15;5.83;;;5.20;;
815;SDS011;25928;51.062;13.752;2022-08-11T00:43:06;6.10;;;5.00;;
815;SDS011;25928;51.062;13.752;2022-08-11T00:49:30;7.13;;;5.27;;
815;SDS011;25928;51.062;13.752;2022-08-11T01:03:49;5.50;;;4.57;;
815;SDS011;25928;51.062;13.752;2022-08-11T01:21:20;5.50;;;5.07;;
815;SDS011;25928;51.062;13.752;2022-08-11T01:40:08;5.00;;;4.60;;
815;SDS011;25928;51.062;13.752;2022-08-11T01:42:53;6.77;;;5.20;;
815;SDS011;25928;51.062;13.752;2022-08-11T01:48:36;7.43;;;5.20;;
815;SDS011;25928;51.062;13.752;2022-08-11T01:54:30;6.00;;;5.00;;
815;SDS011;25928;51.062;13.752;2022-08-11T01:59:54;6.00;;;4.50;;
815;SDS011;25928;51.062;13.752;2022-08-11T02:11:23;5.27;;;4.80;;
815;SDS011;25928;51.062;13.752;2022-08-11T02:14:02;6.67;;;5.37;;
815;SDS011;25928;51.062;13.752;2022-08-11T02:28:06;5.00;;;4.23;;
815;SDS011;25928;51.062;13.752;2022-08-11T02:34:13;5.53;;;5.07;;
815;SDS011;25928;51.062;13.752;2022-08-11T02:42:25;5.60;;;5.20;;
815;SDS011;25928;51.062;13.752;2022-08-11T02:50:32;5.90;;;5.20;;
815;SDS011;25928;51.062;13.752;2022-08-11T02:53:16;7.57;;;6.87;;
815;SDS011;25928;51.062;13.752;2022-08-11T02:56:13;6.00;;;5.10;;
815;SDS011;25928;51.062;13.752;2022-08-11T03:01:54;5.90;;;5.40;;
815;SDS011;25928;51.062;13.752;2022-08-11T03:04:26;6.67;;;6.10;;
815;SDS011;25928;51.062;13.752;2022-08-11T03:07:04;6.30;;;5.73;;
815;SDS011;25928;51.062;13.752;2022-08-11T03:09:48;6.97;;;5.80;;
815;SDS011;25928;51.062;13.752;2022-08-11T03:12:29;6.37;;;5.60;;
815;SDS011;25928;51.062;13.752;2022-08-11T03:15:46;6.80;;;4.83;;
815;SDS011;25928;51.062;13.752;2022-08-11T03:18:55;10.60;;;6.10;;
815;SDS011;25928;51.062;13.752;2022-08-11T03:21:28;6.67;;;5.20;;
815;SDS011;25928;51.062;13.752;2022-08-11T03:24:05;5.57;;;5.07;;
815;SDS011;25928;51.062;13.752;2022-08-11T03:27:02;6.10;;;5.60;;
815;SDS011;25928;51.062;13.752;2022-08-11T03:29:48;7.03;;;6.00;;
815;SDS011;25928;51.062;13.752;2022-08-11T03:35:39;5.97;;;5.37;;
815;SDS011;25928;51.062;13.752;2022-08-11T03:38:18;6.53;;;5.80;;
815;SDS011;25928;51.062;13.752;2022-08-11T03:40:57;7.60;;;5.37;;
815;SDS011;25928;51.062;13.752;2022-08-11T04:12:13;6.90;;;6.10;;
815;SDS011;25928;51.062;13.752;2022-08-11T04:23:14;6.03;;;5.53;;
815;SDS011;25928;51.062;13.752;2022-08-11T04:26:01;8.37;;;5.60;;
815;SDS011;25928;51.062;13.752;2022-08-11T04:54:37;6.70;;;6.10;;
815;SDS011;25928;51.062;13.752;2022-08-11T05:01:12;7.63;;;6.63;;
815;SDS011;25928;51.062;13.752;2022-08-11T05:13:11;9.30;;;7.23;;
815;SDS011;25928;51.062;13.752;2022-08-11T05:16:07;9.73;;;6.60;;
815;SDS011;25928;51.062;13.752;2022-08-11T05:18:54;12.23;;;7.10;;
815;SDS011;25928;51.062;13.752;2022-08-11T05:21:41;8.33;;;7.37;;
815;SDS011;25928;51.062;13.752;2022-08-11T05:24:51;6.57;;;5.97;;
815;SDS011;25928;51.062;13.752;2022-08-11T05:27:49;8.63;;;6.90;;
815;SDS011;25928;51.062;13.752;2022-08-11T05:30:42;8.77;;;6.60;;
815;SDS011;25928;51.062;13.752;2022-08-11T05:33:34;7.40;;;6.70;;
815;SDS011;25928;51.062;13.752;2022-08-11T05:39:14;6.30;;;5.80;;
815;SDS011;25928;51.062;13.752;2022-08-11T05:42:09;8.70;;;5.73;;
815;SDS011;25928;51.062;13.752;2022-08-11T05:44:54;7.60;;;6.90;;
815;SDS011;25928;51.062;13.752;2022-08-11T05:47:54;6.73;;;6.20;;
815;SDS011;25928;51.062;13.752;2022-08-11T05:50:39;8.10;;;6.03;;
815;SDS011;25928;51.062;13.752;2022-08-11T05:53:24;6.20;;;5.60;;
815;SDS011;25928;51.062;13.752;2022-08-11T05:56:08;8.00;;;5.90;;
815;SDS011;25928;51.062;13.752;2022-08-11T05:58:44;6.30;;;5.60;;
815;SDS011;25928;51.062;13.752;2022-08-11T06:01:27;6.43;;;5.83;;
815;SDS011;25928;51.062;13.752;2022-08-11T06:03:56;7.17;;;5.53;;
815;SDS011;25928;51.062;13.752;2022-08-11T06:06:39;6.40;;;5.83;;
815;SDS011;25928;51.062;13.752;2022-08-11T06:09:21;7.33;;;5.80;;
815;SDS011;25928;51.062;13.752;2022-08-11T06:11:52;8.13;;;5.83;;
815;SDS011;25928;51.062;13.752;2022-08-11T06:14:21;7.13;;;5.27;;
815;SDS011;25928;51.062;13.752;2022-08-11T06:16:49;5.17;;;4.70;;
815;SDS011;25928;51.062;13.752;2022-08-11T06:19:20;7.03;;;5.70;;
815;SDS011;25928;51.062;13.752;2022-08-11T06:21:47;6.33;;;5.73;;
815;SDS011;25928;51.062;13.752;2022-08-11T06:24:15;7.43;;;5.97;;
815;SDS011;25928;51.062;13.752;2022-08-11T06:26:49;5.90;;;5.40;;
815;SDS011;25928;51.062;13.752;2022-08-11T06:29:16;7.93;;;6.40;;
815;SDS011;25928;51.062;13.752;2022-08-11T06:31:50;9.00;;;6.07;;
815;SDS011;25928;51.062;13.752;2022-08-11T06:40:08;11.43;;;5.30;;
815;SDS011;25928;51.062;13.752;2022-08-11T06:47:54;5.27;;;4.77;;
815;SDS011;25928;51.062;13.752;2022-08-11T06:50:24;6.67;;;5.03;;
815;SDS011;25928;51.062;13.752;2022-08-11T06:53:09;6.73;;;4.97;;
815;SDS011;25928;51.062;13.752;2022-08-11T06:55:38;7.33;;;5.20;;
815;SDS011;25928;51.062;13.752;2022-08-11T06:58:28;7.73;;;5.00;;
815;SDS011;25928;51.062;13.752;2022-08-11T07:01:37;5.47;;;4.97;;
815;SDS011;25928;51.062;13.752;2022-08-11T07:04:10;6.00;;;4.80;;
815;SDS011;25928;51.062;13.752;2022-08-11T07:13:11;8.07;;;5.17;;
815;SDS011;25928;51.062;13.752;2022-08-11T07:15:59;6.47;;;4.23;;
815;SDS011;25928;51.062;13.752;2022-08-11T07:18:26;5.50;;;4.50;;
815;SDS011;25928;51.062;13.752;2022-08-11T07:21:14;4.80;;;4.40;;
815;SDS011;25928;51.062;13.752;2022-08-11T07:24:20;7.80;;;5.07;;
815;SDS011;25928;51.062;13.752;2022-08-11T07:27:18;8.17;;;4.80;;
815;SDS011;25928;51.062;13.752;2022-08-11T07:30:07;5.40;;;4.43;;
815;SDS011;25928;51.062;13.752;2022-08-11T07:32:48;9.10;;;5.07;;
815;SDS011;25928;51.062;13.752;2022-08-11T07:35:23;5.40;;;4.90;;
815;SDS011;25928;51.062;13.752;2022-08-11T07:37:57;5.20;;;4.70;;
815;SDS011;25928;51.062;13.752;2022-08-11T07:40:30;8.27;;;7.10;;
815;SDS011;25928;51.062;13.752;2022-08-11T07:42:58;7.60;;;4.27;;
815;SDS011;25928;51.062;13.752;2022-08-11T07:45:25;5.80;;;4.90;;
815;SDS011;25928;51.062;13.752;2022-08-11T07:48:10;5.33;;;4.83;;
815;SDS011;25928;51.062;13.752;2022-08-11T07:50:57;5.20;;;4.47;;
815;SDS011;25928;51.062;13.752;2022-08-11T07:53:42;4.73;;;4.23;;
815;SDS011;25928;51.062;13.752;2022-08-11T07:56:09;6.20;;;3.87;;
815;SDS011;25928;51.062;13.752;2022-08-11T07:58:39;3.90;;;3.33;;
815;SDS011;25928;51.062;13.752;2022-08-11T08:01:23;4.40;;;3.57;;
815;SDS011;25928;51.062;13.752;2022-08-11T08:04:10;9.90;;;8.27;;
815;SDS011;25928;51.062;13.752;2022-08-11T08:06:56;5.73;;;4.17;;
815;SDS011;25928;51.062;13.752;2022-08-11T08:09:43;5.70;;;4.10;;
815;SDS011;25928;51.062;13.752;2022-08-11T08:12:27;4.33;;;3.93;;
815;SDS011;25928;51.062;13.752;2022-08-11T08:15:14;4.03;;;3.63;;
815;SDS011;25928;51.062;13.752;2022-08-11T08:18:00;4.97;;;3.90;;
815;SDS011;25928;51.062;13.752;2022-08-11T08:20:29;3.97;;;3.67;;
815;SDS011;25928;51.062;13.752;2022-08-11T08:22:58;6.00;;;3.60;;
815;SDS011;25928;51.062;13.752;2022-08-11T08:25:26;7.00;;;3.70;;
815;SDS011;25928;51.062;13.752;2022-08-11T08:27:54;6.73;;;3.20;;
815;SDS011;25928;51.062;13.752;2022-08-11T08:30:22;4.00;;;3.60;;
815;SDS011;25928;51.062;13.752;2022-08-11T08:33:08;11.03;;;4.17;;
815;SDS011;25928;51.062;13.752;2022-08-11T08:35:37;5.57;;;3.30;;
815;SDS011;25928;51.062;13.752;2022-08-11T08:38:06;4.10;;;3.40;;
815;SDS011;25928;51.062;13.752;2022-08-11T08:40:32;6.67;;;2.80;;
815;SDS011;25928;51.062;13.752;2022-08-11T08:43:01;3.40;;;3.10;;
815;SDS011;25928;51.062;13.752;2022-08-11T08:45:32;3.83;;;3.07;;
815;SDS011;25928;51.062;13.752;2022-08-11T08:48:00;5.60;;;3.10;;
815;SDS011;25928;51.062;13.752;2022-08-11T08:50:35;13.43;;;3.67;;
815;SDS011;25928;51.062;13.752;2022-08-11T08:53:26;4.73;;;3.47;;
815;SDS011;25928;51.062;13.752;2022-08-11T08:55:57;3.57;;;3.23;;
815;SDS011;25928;51.062;13.752;2022-08-11T08:58:25;5.53;;;3.13;;
815;SDS011;25928;51.062;13.752;2022-08-11T09:00:52;2.90;;;2.70;;
815;SDS011;25928;51.062;13.752;2022-08-11T09:03:20;4.60;;;3.43;;
815;SDS011;25928;51.062;13.752;2022-08-11T09:05:47;3.67;;;3.37;;
815;SDS011;25928;51.062;13.752;2022-08-11T09:08:16;5.20;;;2.97;;
815;SDS011;25928;51.062;13.752;2022-08-11T09:10:47;3.53;;;2.80;;
815;SDS011;25928;51.062;13.752;2022-08-11T09:13:34;2.90;;;2.70;;
815;SDS011;25928;51.062;13.752;2022-08-11T09:16:06;5.47;;;3.23;;
815;SDS011;25928;51.062;13.752;2022-08-11T09:18:34;3.03;;;2.73;;
815;SDS011;25928;51.062;13.752;2022-08-11T09:21:01;4.40;;;3.60;;
815;SDS011;25928;51.062;13.752;2022-08-11T09:23:29;3.27;;;2.97;;
815;SDS011;25928;51.062;13.752;2022-08-11T09:26:14;3.80;;;3.20;;
815;SDS011;25928;51.062;13.752;2022-08-11T09:29:00;2.97;;;2.70;;
815;SDS011;25928;51.062;13.752;2022-08-11T09:31:32;5.07;;;3.23;;
815;SDS011;25928;51.062;13.752;2022-08-11T09:33:57;4.27;;;2.90;;
815;SDS011;25928;51.062;13.752;2022-08-11T09:36:24;3.70;;;2.80;;
815;SDS011;25928;51.062;13.752;2022-08-11T09:39:09;3.33;;;3.03;;
815;SDS011;25928;51.062;13.752;2022-08-11T09:41:54;3.10;;;2.83;;
815;SDS011;25928;51.062;13.752;2022-08-11T09:44:20;7.50;;;2.50;;
815;SDS011;25928;51.062;13.752;2022-08-11T09:47:05;3.37;;;2.97;;
815;SDS011;25928;51.062;13.752;2022-08-11T09:49:37;3.27;;;2.97;;
815;SDS011;25928;51.062;13.752;2022-08-11T09:52:04;5.00;;;3.17;;
815;SDS011;25928;51.062;13.752;2022-08-11T09:54:33;3.67;;;2.67;;
815;SDS011;25928;51.062;13.752;2022-08-11T09:56:59;3.30;;;2.93;;
815;SDS011;25928;51.062;13.752;2022-08-11T09:59:43;5.37;;;3.17;;
815;SDS011;25928;51.062;13.752;2022-08-11T10:02:09;6.10;;;3.20;;
815;SDS011;25928;51.062;13.752;2022-08-11T10:07:09;3.87;;;3.07;;
815;SDS011;25928;51.062;13.752;2022-08-11T10:09:39;4.33;;;3.00;;
815;SDS011;25928;51.062;13.752;2022-08-11T10:12:09;6.30;;;2.87;;
815;SDS011;25928;51.062;13.752;2022-08-11T10:14:40;3.90;;;2.97;;
815;SDS011;25928;51.062;13.752;2022-08-11T10:17:29;3.13;;;2.80;;
815;SDS011;25928;51.062;13.752;2022-08-11T10:19:57;2.93;;;2.63;;
815;SDS011;25928;51.062;13.752;2022-08-11T10:22:27;3.20;;;2.63;;
815;SDS011;25928;51.062;13.752;2022-08-11T10:25:12;3.50;;;3.00;;
815;SDS011;25928;51.062;13.752;2022-08-11T10:27:57;4.03;;;2.87;;
815;SDS011;25928;51.062;13.752;2022-08-11T10:30:24;4.47;;;2.43;;
815;SDS011;25928;51.062;13.752;2022-08-11T10:33:11;3.47;;;3.03;;
815;SDS011;25928;51.062;13.752;2022-08-11T10:35:56;3.27;;;2.90;;
815;SDS011;25928;51.062;13.752;2022-08-11T10:38:26;3.07;;;2.60;;
815;SDS011;25928;51.062;13.752;2022-08-11T10:40:52;4.50;;;2.30;;
815;SDS011;25928;51.062;13.752;2022-08-11T10:43:38;4.83;;;3.10;;
815;SDS011;25928;51.062;13.752;2022-08-11T10:46:06;3.93;;;2.83;;
815;SDS011;25928;51.062;13.752;2022-08-11T10:48:53;4.90;;;2.67;;
815;SDS011;25928;51.062;13.752;2022-08-11T10:51:20;3.83;;;2.70;;
815;SDS011;25928;51.062;13.752;2022-08-11T10:54:06;3.67;;;2.03;;
815;SDS011;25928;51.062;13.752;2022-08-11T10:56:51;3.80;;;3.07;;
815;SDS011;25928;51.062;13.752;2022-08-11T10:59:37;2.60;;;2.40;;
815;SDS011;25928;51.062;13.752;2022-08-11T11:02:06;3.30;;;2.40;;
815;SDS011;25928;51.062;13.752;2022-08-11T11:07:37;5.53;;;2.60;;
815;SDS011;25928;51.062;13.752;2022-08-11T11:10:11;3.23;;;2.70;;
815;SDS011;25928;51.062;13.752;2022-08-11T11:12:43;2.73;;;2.20;;
815;SDS011;25928;51.062;13.752;2022-08-11T11:15:30;3.20;;;2.50;;
815;SDS011;25928;51.062;13.752;2022-08-11T11:18:18;2.47;;;2.27;;
815;SDS011;25928;51.062;13.752;2022-08-11T11:20:53;2.53;;;2.30;;
815;SDS011;25928;51.062;13.752;2022-08-11T11:26:40;7.30;;;3.13;;
815;SDS011;25928;51.062;13.752;2022-08-11T11:32:16;3.27;;;2.10;;
815;SDS011;25928;51.062;13.752;2022-08-11T11:38:08;4.33;;;2.23;;
815;SDS011;25928;51.062;13.752;2022-08-11T11:40:34;2.07;;;1.87;;
815;SDS011;25928;51.062;13.752;2022-08-11T11:43:01;2.20;;;2.00;;
815;SDS011;25928;51.062;13.752;2022-08-11T11:45:29;2.07;;;1.80;;
815;SDS011;25928;51.062;13.752;2022-08-11T11:47:55;2.10;;;1.80;;
815;SDS011;25928;51.062;13.752;2022-08-11T11:50:24;2.57;;;2.00;;
815;SDS011;25928;51.062;13.752;2022-08-11T11:52:52;2.97;;;1.57;;
815;SDS011;25928;51.062;13.752;2022-08-11T11:55:20;1.83;;;1.70;;
815;SDS011;25928;51.062;13.752;2022-08-11T11:57:47;3.10;;;1.70;;
815;SDS011;25928;51.062;13.752;2022-08-11T12:00:31;3.43;;;1.87;;
815;SDS011;25928;51.062;13.752;2022-08-11T12:03:16;3.20;;;1.77;;
815;SDS011;25928;51.062;13.752;2022-08-11T12:05:43;2.43;;;1.30;;
815;SDS011;25928;51.062;13.752;2022-08-11T12:08:10;5.30;;;1.70;;
815;SDS011;25928;51.062;13.752;2022-08-11T12:10:42;5.10;;;1.90;;
815;SDS011;25928;51.062;13.752;2022-08-11T12:13:08;2.50;;;1.80;;
815;SDS011;25928;51.062;13.752;2022-08-11T12:15:53;1.40;;;1.30;;
815;SDS011;25928;51.062;13.752;2022-08-11T12:18:19;1.40;;;1.20;;
815;SDS011;25928;51.062;13.752;2022-08-11T12:20:45;2.23;;;1.50;;
815;SDS011;25928;51.062;13.752;2022-08-11T12:23:11;4.97;;;1.90;;
815;SDS011;25928;51.062;13.752;2022-08-11T12:25:57;5.23;;;1.93;;
815;SDS011;25928;51.062;13.752;2022-08-11T12:28:43;1.77;;;1.60;;
815;SDS011;25928;51.062;13.752;2022-08-11T12:31:09;1.90;;;1.70;;
815;SDS011;25928;51.062;13.752;2022-08-11T12:33:36;2.37;;;1.53;;
815;SDS011;25928;51.062;13.752;2022-08-11T12:36:02;2.90;;;1.70;;
815;SDS011;25928;51.062;13.752;2022-08-11T12:38:32;4.43;;;1.90;;
815;SDS011;25928;51.062;13.752;2022-08-11T12:40:59;2.30;;;1.53;;
815;SDS011;25928;51.062;13.752;2022-08-11T12:43:45;3.27;;;1.60;;
815;SDS011;25928;51.062;13.752;2022-08-11T12:46:31;2.87;;;1.40;;
815;SDS011;25928;51.062;13.752;2022-08-11T12:49:11;1.63;;;1.50;;
815;SDS011;25928;51.062;13.752;2022-08-11T12:52:05;2.47;;;1.57;;
815;SDS011;25928;51.062;13.752;2022-08-11T12:54:36;2.40;;;1.70;;
815;SDS011;25928;51.062;13.752;2022-08-11T12:57:09;2.07;;;1.50;;
815;SDS011;25928;51.062;13.752;2022-08-11T12:59:57;2.70;;;1.50;;
815;SDS011;25928;51.062;13.752;2022-08-11T13:02:43;3.83;;;1.87;;
815;SDS011;25928;51.062;13.752;2022-08-11T13:05:29;1.90;;;1.70;;
815;SDS011;25928;51.062;13.752;2022-08-11T13:07:57;2.60;;;1.23;;
815;SDS011;25928;51.062;13.752;2022-08-11T13:10:24;2.70;;;1.33;;
815;SDS011;25928;51.062;13.752;2022-08-11T13:13:09;2.33;;;1.60;;
815;SDS011;25928;51.062;13.752;2022-08-11T13:15:35;3.43;;;1.93;;
815;SDS011;25928;51.062;13.752;2022-08-11T13:18:02;2.00;;;1.70;;
815;SDS011;25928;51.062;13.752;2022-08-11T13:20:28;1.63;;;1.53;;
815;SDS011;25928;51.062;13.752;2022-08-11T13:22:55;5.03;;;1.90;;
815;SDS011;25928;51.062;13.752;2022-08-11T13:25:23;2.43;;;1.80;;
815;SDS011;25928;51.062;13.752;2022-08-11T13:27:54;2.77;;;1.73;;
815;SDS011;25928;51.062;13.752;2022-08-11T13:30:25;4.23;;;1.63;;
815;SDS011;25928;51.062;13.752;2022-08-11T13:33:12;3.50;;;1.90;;
815;SDS011;25928;51.062;13.752;2022-08-11T13:35:40;4.27;;;2.10;;
815;SDS011;25928;51.062;13.752;2022-08-11T13:38:07;3.47;;;1.70;;
815;SDS011;25928;51.062;13.752;2022-08-11T13:40:37;3.23;;;1.80;;
815;SDS011;25928;51.062;13.752;2022-08-11T13:43:04;2.37;;;1.73;;
815;SDS011;25928;51.062;13.752;2022-08-11T13:45:33;5.00;;;2.07;;
815;SDS011;25928;51.062;13.752;2022-08-11T13:48:00;1.80;;;1.70;;
815;SDS011;25928;51.062;13.752;2022-08-11T13:50:30;3.73;;;1.63;;
815;SDS011;25928;51.062;13.752;2022-08-11T13:53:30;2.70;;;1.90;;
815;SDS011;25928;51.062;13.752;2022-08-11T13:55:57;2.83;;;2.57;;
815;SDS011;25928;51.062;13.752;2022-08-11T13:58:24;5.77;;;2.83;;
815;SDS011;25928;51.062;13.752;2022-08-11T14:00:51;8.20;;;4.77;;
815;SDS011;25928;51.062;13.752;2022-08-11T14:03:24;3.10;;;2.13;;
815;SDS011;25928;51.062;13.752;2022-08-11T14:05:52;3.63;;;2.30;;
815;SDS011;25928;51.062;13.752;2022-08-11T14:08:23;4.77;;;2.43;;
815;SDS011;25928;51.062;13.752;2022-08-11T14:10:58;5.10;;;4.43;;
815;SDS011;25928;51.062;13.752;2022-08-11T14:13:45;4.53;;;3.20;;
815;SDS011;25928;51.062;13.752;2022-08-11T14:16:32;5.20;;;3.50;;
815;SDS011;25928;51.062;13.752;2022-08-11T14:19:06;4.60;;;2.40;;
815;SDS011;25928;51.062;13.752;2022-08-11T14:21:37;3.17;;;2.23;;
815;SDS011;25928;51.062;13.752;2022-08-11T14:24:25;2.10;;;1.90;;
815;SDS011;25928;51.062;13.752;2022-08-11T14:26:51;3.37;;;2.33;;
815;SDS011;25928;51.062;13.752;2022-08-11T14:29:19;2.83;;;2.20;;
815;SDS011;25928;51.062;13.752;2022-08-11T14:34:13;4.77;;;2.80;;
815;SDS011;25928;51.062;13.752;2022-08-11T14:36:42;4.30;;;2.40;;
815;SDS011;25928;51.062;13.752;2022-08-11T14:39:12;2.37;;;2.17;;
815;SDS011;25928;51.062;13.752;2022-08-11T14:41:42;2.73;;;2.07;;
815;SDS011;25928;51.062;13.752;2022-08-11T14:44:33;3.60;;;2.20;;
815;SDS011;25928;51.062;13.752;2022-08-11T14:47:20;2.60;;;2.13;;
815;SDS011;25928;51.062;13.752;2022-08-11T14:49:47;3.20;;;2.13;;
815;SDS011;25928;51.062;13.752;2022-08-11T14:52:16;2.23;;;2.03;;
815;SDS011;25928;51.062;13.752;2022-08-11T14:54:44;2.13;;;1.93;;
815;SDS011;25928;51.062;13.752;2022-08-11T14:57:31;2.63;;;1.87;;
815;SDS011;25928;51.062;13.752;2022-08-11T15:00:01;2.33;;;1.90;;
815;SDS011;25928;51.062;13.752;2022-08-11T15:02:30;2.50;;;2.10;;
815;SDS011;25928;51.062;13.752;2022-08-11T15:05:16;8.77;;;1.87;;
815;SDS011;25928;51.062;13.752;2022-08-11T15:07:44;3.53;;;2.10;;
815;SDS011;25928;51.062;13.752;2022-08-11T15:10:10;2.10;;;1.83;;
815;SDS011;25928;51.062;13.752;2022-08-11T15:12:38;3.07;;;2.00;;
815;SDS011;25928;51.062;13.752;2022-08-11T15:15:07;6.63;;;2.17;;
815;SDS011;25928;51.062;13.752;2022-08-11T15:17:54;3.30;;;2.23;;
815;SDS011;25928;51.062;13.752;2022-08-11T15:20:21;3.80;;;2.30;;
815;SDS011;25928;51.062;13.752;2022-08-11T15:23:07;2.70;;;1.90;;
815;SDS011;25928;51.062;13.752;2022-08-11T15:25:54;2.30;;;2.10;;
815;SDS011;25928;51.062;13.752;2022-08-11T15:28:26;3.93;;;2.37;;
815;SDS011;25928;51.062;13.752;2022-08-11T15:31:13;2.97;;;2.17;;
815;SDS011;25928;51.062;13.752;2022-08-11T15:34:01;3.20;;;2.30;;
815;SDS011;25928;51.062;13.752;2022-08-11T15:37:02;4.20;;;2.40;;
815;SDS011;25928;51.062;13.752;2022-08-11T15:39:52;2.27;;;2.07;;
815;SDS011;25928;51.062;13.752;2022-08-11T15:42:49;2.40;;;2.07;;
815;SDS011;25928;51.062;13.752;2022-08-11T15:45:43;2.40;;;2.20;;
815;SDS011;25928;51.062;13.752;2022-08-11T15:50:59;5.90;;;1.80;;
815;SDS011;25928;51.062;13.752;2022-08-11T15:53:56;4.33;;;2.37;;
815;SDS011;25928;51.062;13.752;2022-08-11T15:56:23;2.70;;;2.00;;
815;SDS011;25928;51.062;13.752;2022-08-11T15:58:52;2.20;;;2.00;;
815;SDS011;25928;51.062;13.752;2022-08-11T16:01:38;2.60;;;2.30;;
815;SDS011;25928;51.062;13.752;2022-08-11T16:04:25;3.53;;;3.13;;
815;SDS011;25928;51.062;13.752;2022-08-11T16:09:21;2.50;;;2.30;;
815;SDS011;25928;51.062;13.752;2022-08-11T16:11:51;3.00;;;1.87;;
815;SDS011;25928;51.062;13.752;2022-08-11T16:14:21;6.20;;;4.80;;
815;SDS011;25928;51.062;13.752;2022-08-11T16:17:07;3.30;;;2.50;;
815;SDS011;25928;51.062;13.752;2022-08-11T16:19:35;2.53;;;1.90;;
815;SDS011;25928;51.062;13.752;2022-08-11T16:22:05;2.50;;;2.30;;
815;SDS011;25928;51.062;13.752;2022-08-11T16:24:34;3.30;;;3.00;;
815;SDS011;25928;51.062;13.752;2022-08-11T16:27:03;3.23;;;2.57;;
815;SDS011;25928;51.062;13.752;2022-08-11T16:29:30;2.70;;;2.50;;
815;SDS011;25928;51.062;13.752;2022-08-11T16:31:57;2.53;;;2.30;;
815;SDS011;25928;51.062;13.752;2022-08-11T16:34:44;2.37;;;2.17;;
815;SDS011;25928;51.062;13.752;2022-08-11T16:37:50;2.70;;;2.50;;
815;SDS011;25928;51.062;13.752;2022-08-11T16:40:35;4.07;;;2.40;;
815;SDS011;25928;51.062;13.752;2022-08-11T16:43:04;6.70;;;2.30;;
815;SDS011;25928;51.062;13.752;2022-08-11T16:45:50;5.20;;;2.90;;
815;SDS011;25928;51.062;13.752;2022-08-11T16:48:37;2.90;;;2.20;;
815;SDS011;25928;51.062;13.752;2022-08-11T16:51:05;3.17;;;2.23;;
815;SDS011;25928;51.062;13.752;2022-08-11T16:53:32;2.70;;;2.50;;
815;SDS011;25928;51.062;13.752;2022-08-11T16:55:58;2.50;;;2.30;;
815;SDS011;25928;51.062;13.752;2022-08-11T16:58:30;3.03;;;2.43;;
815;SDS011;25928;51.062;13.752;2022-08-11T17:01:18;2.50;;;2.30;;
815;SDS011;25928;51.062;13.752;2022-08-11T17:03:46;2.60;;;1.90;;
815;SDS011;25928;51.062;13.752;2022-08-11T17:06:36;3.43;;;2.17;;
815;SDS011;25928;51.062;13.752;2022-08-11T17:09:24;2.17;;;1.80;;
815;SDS011;25928;51.062;13.752;2022-08-11T17:12:10;2.17;;;1.90;;
815;SDS011;25928;51.062;13.752;2022-08-11T17:14:57;4.10;;;2.30;;
815;SDS011;25928;51.062;13.752;2022-08-11T17:17:26;4.03;;;2.20;;
815;SDS011;25928;51.062;13.752;2022-08-11T17:20:02;2.40;;;1.90;;
815;SDS011;25928;51.062;13.752;2022-08-11T17:22:33;2.97;;;2.23;;
815;SDS011;25928;51.062;13.752;2022-08-11T17:25:19;3.27;;;3.07;;
815;SDS011;25928;51.062;13.752;2022-08-11T17:27:45;2.57;;;2.20;;
815;SDS011;25928;51.062;13.752;2022-08-11T17:30:14;2.50;;;2.00;;
815;SDS011;25928;51.062;13.752;2022-08-11T17:32:47;2.87;;;1.93;;
815;SDS011;25928;51.062;13.752;2022-08-11T17:35:35;2.10;;;1.67;;
815;SDS011;25928;51.062;13.752;2022-08-11T17:40:52;7.60;;;2.90;;
815;SDS011;25928;51.062;13.752;2022-08-11T17:43:39;5.10;;;2.30;;
815;SDS011;25928;51.062;13.752;2022-08-11T17:46:24;2.67;;;1.80;;
815;SDS011;25928;51.062;13.752;2022-08-11T17:49:10;2.67;;;1.83;;
815;SDS011;25928;51.062;13.752;2022-08-11T17:51:37;4.10;;;2.13;;
815;SDS011;25928;51.062;13.752;2022-08-11T17:54:24;2.20;;;1.90;;
815;SDS011;25928;51.062;13.752;2022-08-11T17:57:09;4.37;;;2.50;;
815;SDS011;25928;51.062;13.752;2022-08-11T17:59:56;4.50;;;1.97;;
815;SDS011;25928;51.062;13.752;2022-08-11T18:05:16;2.90;;;1.90;;
815;SDS011;25928;51.062;13.752;2022-08-11T18:07:44;2.37;;;2.17;;
815;SDS011;25928;51.062;13.752;2022-08-11T18:10:31;3.10;;;1.60;;
815;SDS011;25928;51.062;13.752;2022-08-11T18:13:16;2.70;;;1.90;;
815;SDS011;25928;51.062;13.752;2022-08-11T18:16:06;4.43;;;2.43;;
815;SDS011;25928;51.062;13.752;2022-08-11T18:18:51;2.40;;;2.20;;
815;SDS011;25928;51.062;13.752;2022-08-11T18:21:36;4.43;;;2.07;;
815;SDS011;25928;51.062;13.752;2022-08-11T18:24:24;5.67;;;2.07;;
815;SDS011;25928;51.062;13.752;2022-08-11T18:27:11;3.17;;;2.50;;
815;SDS011;25928;51.062;13.752;2022-08-11T18:29:59;3.40;;;2.40;;
815;SDS011;25928;51.062;13.752;2022-08-11T18:32:46;4.27;;;2.83;;
815;SDS011;25928;51.062;13.752;2022-08-11T18:35:34;3.13;;;2.70;;
815;SDS011;25928;51.062;13.752;2022-08-11T18:38:18;5.53;;;2.20;;
815;SDS011;25928;51.062;13.752;2022-08-11T18:41:05;2.83;;;2.17;;
815;SDS011;25928;51.062;13.752;2022-08-11T18:43:51;2.43;;;2.20;;
815;SDS011;25928;51.062;13.752;2022-08-11T18:46:40;2.20;;;1.60;;
815;SDS011;25928;51.062;13.752;2022-08-11T18:49:32;2.33;;;2.13;;
815;SDS011;25928;51.062;13.752;2022-08-11T18:52:18;6.03;;;2.13;;
815;SDS011;25928;51.062;13.752;2022-08-11T18:55:04;2.30;;;1.77;;
815;SDS011;25928;51.062;13.752;2022-08-11T18:57:53;2.77;;;2.23;;
815;SDS011;25928;51.062;13.752;2022-08-11T19:00:39;3.93;;;2.00;;
815;SDS011;25928;51.062;13.752;2022-08-11T19:03:25;6.23;;;2.13;;
815;SDS011;25928;51.062;13.752;2022-08-11T19:06:10;2.03;;;1.83;;
815;SDS011;25928;51.062;13.752;2022-08-11T19:08:56;3.20;;;2.00;;
815;SDS011;25928;51.062;13.752;2022-08-11T19:11:44;3.80;;;2.27;;
815;SDS011;25928;51.062;13.752;2022-08-11T19:14:30;3.30;;;1.93;;
815;SDS011;25928;51.062;13.752;2022-08-11T19:17:16;2.13;;;1.83;;
815;SDS011;25928;51.062;13.752;2022-08-11T19:20:03;4.83;;;2.00;;
815;SDS011;25928;51.062;13.752;2022-08-11T19:22:51;2.40;;;1.80;;
815;SDS011;25928;51.062;13.752;2022-08-11T19:25:38;3.30;;;1.87;;
815;SDS011;25928;51.062;13.752;2022-08-11T19:28:25;2.30;;;2.10;;
815;SDS011;25928;51.062;13.752;2022-08-11T19:31:10;2.23;;;2.03;;
815;SDS011;25928;51.062;13.752;2022-08-11T19:33:55;2.30;;;2.10;;
815;SDS011;25928;51.062;13.752;2022-08-11T19:36:41;3.50;;;2.10;;
815;SDS011;25928;51.062;13.752;2022-08-11T19:39:26;4.10;;;2.67;;
815;SDS011;25928;51.062;13.752;2022-08-11T19:42:12;2.90;;;2.40;;
815;SDS011;25928;51.062;13.752;2022-08-11T19:44:57;4.23;;;2.27;;
815;SDS011;25928;51.062;13.752;2022-08-11T19:47:43;3.03;;;2.03;;
815;SDS011;25928;51.062;13.752;2022-08-11T19:50:29;2.70;;;2.03;;
815;SDS011;25928;51.062;13.752;2022-08-11T19:53:14;4.20;;;2.37;;
815;SDS011;25928;51.062;13.752;2022-08-11T19:56:00;3.17;;;2.40;;
815;SDS011;25928;51.062;13.752;2022-08-11T19:58:45;3.50;;;2.30;;
815;SDS011;25928;51.062;13.752;2022-08-11T20:01:30;2.60;;;2.37;;
815;SDS011;25928;51.062;13.752;2022-08-11T20:04:14;3.43;;;2.30;;